Terminal Aerodrome Forecast
Issued by NWS Huntsville, AL

Home | Current Version | Previous Version | Text Only | Print | Product List | Glossary On
Versions: 1 2 3 4 5 6 7 8 9 10 11 12 13 14 15 16 17 18 19 20 21 22 23 24 25 26 27 28 29 30 31 32 33 34 35 36
000
FTUS44 KHUN 291840 AAA
TAFHSV
TAF AMD
KHSV 291840Z 2919/3018 24003KT P6SM FEW040 BKN110
     FM300000 34005KT P6SM FEW050 SCT120 SCT250
     FM301000 VRB02KT 5SM BR SCT250
     FM301400 02005KT P6SM SCT035=

USA.gov is the U.S. government's official web portal to all federal, state and local government web resources and services.